sensor_id;sensor_type;location;lat;lon;timestamp;temperature;humidity
69464;DHT22;56665;41.106;16.688;2024-03-02T00:00:57;11.32;84.36
69464;DHT22;56665;41.106;16.688;2024-03-02T00:04:03;11.28;84.09
69464;DHT22;56665;41.106;16.688;2024-03-02T00:07:07;11.19;84.09
69464;DHT22;56665;41.106;16.688;2024-03-02T00:10:13;11.22;84.33
69464;DHT22;56665;41.106;16.688;2024-03-02T00:13:20;11.21;84.33
69464;DHT22;56665;41.106;16.688;2024-03-02T00:16:24;11.25;84.31
69464;DHT22;56665;41.106;16.688;2024-03-02T00:19:33;11.27;84.35
69464;DHT22;56665;41.106;16.688;2024-03-02T00:22:36;11.24;84.11
69464;DHT22;56665;41.106;16.688;2024-03-02T00:28:45;11.08;83.58
69464;DHT22;56665;41.106;16.688;2024-03-02T00:31:49;10.98;83.78
69464;DHT22;56665;41.106;16.688;2024-03-02T00:34:53;11.00;84.03
69464;DHT22;56665;41.106;16.688;2024-03-02T00:37:56;11.04;84.20
69464;DHT22;56665;41.106;16.688;2024-03-02T00:41:04;11.04;84.01
69464;DHT22;56665;41.106;16.688;2024-03-02T00:44:12;10.98;83.85
69464;DHT22;56665;41.106;16.688;2024-03-02T00:47:16;10.94;83.66
69464;DHT22;56665;41.106;16.688;2024-03-02T00:50:20;10.93;83.87
69464;DHT22;56665;41.106;16.688;2024-03-02T00:53:26;10.91;83.81
69464;DHT22;56665;41.106;16.688;2024-03-02T00:56:30;10.96;83.69
69464;DHT22;56665;41.106;16.688;2024-03-02T00:59:34;10.96;83.55
69464;DHT22;56665;41.106;16.688;2024-03-02T01:02:38;10.91;83.39
69464;DHT22;56665;41.106;16.688;2024-03-02T01:05:42;10.81;83.25
69464;DHT22;56665;41.106;16.688;2024-03-02T01:08:47;10.77;83.16
69464;DHT22;56665;41.106;16.688;2024-03-02T01:11:54;10.73;83.29
69464;DHT22;56665;41.106;16.688;2024-03-02T01:14:57;10.69;83.33
69464;DHT22;56665;41.106;16.688;2024-03-02T01:18:01;10.62;83.38
69464;DHT22;56665;41.106;16.688;2024-03-02T01:21:05;10.59;83.35
69464;DHT22;56665;41.106;16.688;2024-03-02T01:24:09;10.57;83.31
69464;DHT22;56665;41.106;16.688;2024-03-02T01:27:12;10.50;83.37
69464;DHT22;56665;41.106;16.688;2024-03-02T01:30:16;10.52;83.51
69464;DHT22;56665;41.106;16.688;2024-03-02T01:33:20;10.53;83.63
69464;DHT22;56665;41.106;16.688;2024-03-02T01:36:24;10.52;83.52
69464;DHT22;56665;41.106;16.688;2024-03-02T01:39:28;10.45;83.57
69464;DHT22;56665;41.106;16.688;2024-03-02T01:42:32;10.45;83.72
69464;DHT22;56665;41.106;16.688;2024-03-02T01:45:36;10.39;83.67
69464;DHT22;56665;41.106;16.688;2024-03-02T01:48:41;10.30;83.76
69464;DHT22;56665;41.106;16.688;2024-03-02T01:51:44;10.25;83.87
69464;DHT22;56665;41.106;16.688;2024-03-02T01:54:48;10.25;84.15
69464;DHT22;56665;41.106;16.688;2024-03-02T01:57:52;10.21;84.25
69464;DHT22;56665;41.106;16.688;2024-03-02T02:00:56;10.26;84.22
69464;DHT22;56665;41.106;16.688;2024-03-02T02:04:00;10.19;84.18
69464;DHT22;56665;41.106;16.688;2024-03-02T02:07:04;10.22;84.24
69464;DHT22;56665;41.106;16.688;2024-03-02T02:10:08;10.24;84.19
69464;DHT22;56665;41.106;16.688;2024-03-02T02:13:12;10.19;84.04
69464;DHT22;56665;41.106;16.688;2024-03-02T02:16:16;10.17;84.21
69464;DHT22;56665;41.106;16.688;2024-03-02T02:19:22;10.14;84.21
69464;DHT22;56665;41.106;16.688;2024-03-02T02:22:26;10.11;84.00
69464;DHT22;56665;41.106;16.688;2024-03-02T02:25:30;10.07;84.04
69464;DHT22;56665;41.106;16.688;2024-03-02T02:28:34;10.02;83.94
69464;DHT22;56665;41.106;16.688;2024-03-02T02:31:41;9.99;84.11
69464;DHT22;56665;41.106;16.688;2024-03-02T02:34:45;9.99;84.05
69464;DHT22;56665;41.106;16.688;2024-03-02T02:37:50;10.02;83.98
69464;DHT22;56665;41.106;16.688;2024-03-02T02:40:55;10.04;83.98
69464;DHT22;56665;41.106;16.688;2024-03-02T02:43:58;10.02;83.87
69464;DHT22;56665;41.106;16.688;2024-03-02T02:47:02;10.04;83.62
69464;DHT22;56665;41.106;16.688;2024-03-02T02:50:08;10.01;83.57
69464;DHT22;56665;41.106;16.688;2024-03-02T02:53:12;9.98;83.61
69464;DHT22;56665;41.106;16.688;2024-03-02T02:56:16;9.99;83.50
69464;DHT22;56665;41.106;16.688;2024-03-02T02:59:19;9.98;83.60
69464;DHT22;56665;41.106;16.688;2024-03-02T03:02:23;9.95;83.49
69464;DHT22;56665;41.106;16.688;2024-03-02T03:05:27;9.93;83.34
69464;DHT22;56665;41.106;16.688;2024-03-02T03:08:30;9.88;83.29
69464;DHT22;56665;41.106;16.688;2024-03-02T03:11:34;9.87;83.40
69464;DHT22;56665;41.106;16.688;2024-03-02T03:14:40;9.80;83.45
69464;DHT22;56665;41.106;16.688;2024-03-02T03:17:44;9.83;83.44
69464;DHT22;56665;41.106;16.688;2024-03-02T03:20:49;9.86;83.27
69464;DHT22;56665;41.106;16.688;2024-03-02T03:23:53;9.75;82.76
69464;DHT22;56665;41.106;16.688;2024-03-02T03:26:56;9.77;83.00
69464;DHT22;56665;41.106;16.688;2024-03-02T03:30:00;9.70;82.88
69464;DHT22;56665;41.106;16.688;2024-03-02T03:33:05;9.67;82.95
69464;DHT22;56665;41.106;16.688;2024-03-02T03:36:11;9.71;82.94
69464;DHT22;56665;41.106;16.688;2024-03-02T03:39:15;9.66;82.91
69464;DHT22;56665;41.106;16.688;2024-03-02T03:42:19;9.67;82.99
69464;DHT22;56665;41.106;16.688;2024-03-02T03:45:23;9.68;83.07
69464;DHT22;56665;41.106;16.688;2024-03-02T03:48:28;9.66;82.83
69464;DHT22;56665;41.106;16.688;2024-03-02T03:51:34;9.61;82.99
69464;DHT22;56665;41.106;16.688;2024-03-02T03:54:38;9.60;83.10
69464;DHT22;56665;41.106;16.688;2024-03-02T03:57:42;9.61;83.18
69464;DHT22;56665;41.106;16.688;2024-03-02T04:00:46;9.64;82.97
69464;DHT22;56665;41.106;16.688;2024-03-02T04:03:50;9.67;82.93
69464;DHT22;56665;41.106;16.688;2024-03-02T04:06:53;9.67;82.65
69464;DHT22;56665;41.106;16.688;2024-03-02T04:09:57;9.63;82.61
69464;DHT22;56665;41.106;16.688;2024-03-02T04:13:01;9.58;82.74
69464;DHT22;56665;41.106;16.688;2024-03-02T04:16:05;9.61;82.71
69464;DHT22;56665;41.106;16.688;2024-03-02T04:19:08;9.60;82.71
69464;DHT22;56665;41.106;16.688;2024-03-02T04:22:12;9.63;82.67
69464;DHT22;56665;41.106;16.688;2024-03-02T04:25:17;9.61;82.67
69464;DHT22;56665;41.106;16.688;2024-03-02T04:28:22;9.57;82.51
69464;DHT22;56665;41.106;16.688;2024-03-02T04:31:26;9.53;82.40
69464;DHT22;56665;41.106;16.688;2024-03-02T04:34:29;9.51;82.49
69464;DHT22;56665;41.106;16.688;2024-03-02T04:37:34;9.47;82.42
69464;DHT22;56665;41.106;16.688;2024-03-02T04:40:37;9.49;82.54
69464;DHT22;56665;41.106;16.688;2024-03-02T04:43:41;9.46;82.56
69464;DHT22;56665;41.106;16.688;2024-03-02T04:46:45;9.44;82.58
69464;DHT22;56665;41.106;16.688;2024-03-02T04:49:49;9.47;82.71
69464;DHT22;56665;41.106;16.688;2024-03-02T04:52:52;9.51;82.68
69464;DHT22;56665;41.106;16.688;2024-03-02T04:55:56;9.50;82.51
69464;DHT22;56665;41.106;16.688;2024-03-02T04:59:18;9.51;82.56
69464;DHT22;56665;41.106;16.688;2024-03-02T05:02:22;9.51;82.49
69464;DHT22;56665;41.106;16.688;2024-03-02T05:05:26;9.51;82.55
69464;DHT22;56665;41.106;16.688;2024-03-02T05:08:29;9.49;82.34
69464;DHT22;56665;41.106;16.688;2024-03-02T05:11:34;9.44;82.19
69464;DHT22;56665;41.106;16.688;2024-03-02T05:14:40;9.42;82.17
69464;DHT22;56665;41.106;16.688;2024-03-02T05:17:44;9.33;82.38
69464;DHT22;56665;41.106;16.688;2024-03-02T05:20:47;9.37;82.37
69464;DHT22;56665;41.106;16.688;2024-03-02T05:23:51;9.35;82.17
69464;DHT22;56665;41.106;16.688;2024-03-02T05:26:55;9.35;82.35
69464;DHT22;56665;41.106;16.688;2024-03-02T05:29:59;9.36;82.24
69464;DHT22;56665;41.106;16.688;2024-03-02T05:33:03;9.33;82.31
69464;DHT22;56665;41.106;16.688;2024-03-02T05:36:06;9.35;82.29
69464;DHT22;56665;41.106;16.688;2024-03-02T05:39:10;9.37;82.21
69464;DHT22;56665;41.106;16.688;2024-03-02T05:42:14;9.36;82.01
69464;DHT22;56665;41.106;16.688;2024-03-02T05:45:20;9.44;82.03
69464;DHT22;56665;41.106;16.688;2024-03-02T05:48:23;9.44;81.90
69464;DHT22;56665;41.106;16.688;2024-03-02T05:51:27;9.54;81.80
69464;DHT22;56665;41.106;16.688;2024-03-02T05:54:34;9.60;81.59
69464;DHT22;56665;41.106;16.688;2024-03-02T05:57:38;9.61;81.44
69464;DHT22;56665;41.106;16.688;2024-03-02T06:00:47;9.66;81.38
69464;DHT22;56665;41.106;16.688;2024-03-02T06:03:51;9.71;81.23
69464;DHT22;56665;41.106;16.688;2024-03-02T06:06:55;9.70;81.23
69464;DHT22;56665;41.106;16.688;2024-03-02T06:09:59;9.73;81.14
69464;DHT22;56665;41.106;16.688;2024-03-02T06:13:03;9.84;81.09
69464;DHT22;56665;41.106;16.688;2024-03-02T06:16:07;9.98;80.92
69464;DHT22;56665;41.106;16.688;2024-03-02T06:19:11;10.18;80.54
69464;DHT22;56665;41.106;16.688;2024-03-02T06:22:15;10.46;80.25
69464;DHT22;56665;41.106;16.688;2024-03-02T06:25:19;10.66;79.59
69464;DHT22;56665;41.106;16.688;2024-03-02T06:28:23;10.87;78.98
69464;DHT22;56665;41.106;16.688;2024-03-02T06:31:26;11.11;78.94
69464;DHT22;56665;41.106;16.688;2024-03-02T06:34:30;11.25;78.11
69464;DHT22;56665;41.106;16.688;2024-03-02T06:37:34;11.45;77.71
69464;DHT22;56665;41.106;16.688;2024-03-02T06:40:38;11.69;77.49
69464;DHT22;56665;41.106;16.688;2024-03-02T06:43:43;11.97;77.73
69464;DHT22;56665;41.106;16.688;2024-03-02T06:46:47;12.23;76.88
69464;DHT22;56665;41.106;16.688;2024-03-02T06:49:51;12.45;76.32
69464;DHT22;56665;41.106;16.688;2024-03-02T06:52:54;12.65;76.26
69464;DHT22;56665;41.106;16.688;2024-03-02T06:55:59;12.78;75.43
69464;DHT22;56665;41.106;16.688;2024-03-02T06:59:03;13.02;75.52
69464;DHT22;56665;41.106;16.688;2024-03-02T07:02:06;13.26;75.16
69464;DHT22;56665;41.106;16.688;2024-03-02T07:05:13;13.51;74.64
69464;DHT22;56665;41.106;16.688;2024-03-02T07:08:17;13.71;74.20
69464;DHT22;56665;41.106;16.688;2024-03-02T07:11:21;13.95;73.82
69464;DHT22;56665;41.106;16.688;2024-03-02T07:14:24;14.22;73.48
69464;DHT22;56665;41.106;16.688;2024-03-02T07:17:48;14.49;73.22
69464;DHT22;56665;41.106;16.688;2024-03-02T07:20:52;14.74;72.73
69464;DHT22;56665;41.106;16.688;2024-03-02T07:23:55;15.01;72.41
69464;DHT22;56665;41.106;16.688;2024-03-02T07:26:59;15.23;72.13
69464;DHT22;56665;41.106;16.688;2024-03-02T07:30:03;15.50;71.78
69464;DHT22;56665;41.106;16.688;2024-03-02T07:33:07;15.80;71.41
69464;DHT22;56665;41.106;16.688;2024-03-02T07:36:11;16.06;70.81
69464;DHT22;56665;41.106;16.688;2024-03-02T07:39:14;16.21;70.53
69464;DHT22;56665;41.106;16.688;2024-03-02T07:42:18;16.44;69.78
69464;DHT22;56665;41.106;16.688;2024-03-02T07:45:22;16.69;69.16
69464;DHT22;56665;41.106;16.688;2024-03-02T07:48:26;16.92;67.65
69464;DHT22;56665;41.106;16.688;2024-03-02T07:51:30;17.27;66.67
69464;DHT22;56665;41.106;16.688;2024-03-02T07:54:34;17.57;65.45
69464;DHT22;56665;41.106;16.688;2024-03-02T07:57:38;17.86;63.65
69464;DHT22;56665;41.106;16.688;2024-03-02T08:00:42;18.03;62.07
69464;DHT22;56665;41.106;16.688;2024-03-02T08:03:45;18.27;60.49
69464;DHT22;56665;41.106;16.688;2024-03-02T08:06:53;18.53;60.10
69464;DHT22;56665;41.106;16.688;2024-03-02T08:09:58;18.67;58.36
69464;DHT22;56665;41.106;16.688;2024-03-02T08:13:02;18.85;57.58
69464;DHT22;56665;41.106;16.688;2024-03-02T08:16:05;18.99;56.84
69464;DHT22;56665;41.106;16.688;2024-03-02T08:19:13;19.23;56.61
69464;DHT22;56665;41.106;16.688;2024-03-02T08:22:16;19.42;56.19
69464;DHT22;56665;41.106;16.688;2024-03-02T08:25:21;19.56;56.39
69464;DHT22;56665;41.106;16.688;2024-03-02T08:28:25;19.85;55.61
69464;DHT22;56665;41.106;16.688;2024-03-02T08:31:29;20.00;54.41
69464;DHT22;56665;41.106;16.688;2024-03-02T08:34:32;20.21;53.37
69464;DHT22;56665;41.106;16.688;2024-03-02T08:37:42;20.38;53.53
69464;DHT22;56665;41.106;16.688;2024-03-02T08:40:46;20.56;53.68
69464;DHT22;56665;41.106;16.688;2024-03-02T08:43:50;20.63;52.87
69464;DHT22;56665;41.106;16.688;2024-03-02T08:46:54;20.80;51.40
69464;DHT22;56665;41.106;16.688;2024-03-02T08:49:59;20.88;50.70
69464;DHT22;56665;41.106;16.688;2024-03-02T08:53:03;21.14;48.17
69464;DHT22;56665;41.106;16.688;2024-03-02T08:56:07;21.31;47.35
69464;DHT22;56665;41.106;16.688;2024-03-02T08:59:10;21.61;46.98
69464;DHT22;56665;41.106;16.688;2024-03-02T09:02:14;21.76;45.09
69464;DHT22;56665;41.106;16.688;2024-03-02T09:05:18;22.03;47.80
69464;DHT22;56665;41.106;16.688;2024-03-02T09:08:22;22.20;45.93
69464;DHT22;56665;41.106;16.688;2024-03-02T09:11:26;22.12;45.18
69464;DHT22;56665;41.106;16.688;2024-03-02T09:14:29;22.26;44.90
69464;DHT22;56665;41.106;16.688;2024-03-02T09:17:33;22.02;45.30
69464;DHT22;56665;41.106;16.688;2024-03-02T09:20:37;22.40;46.44
69464;DHT22;56665;41.106;16.688;2024-03-02T09:23:41;22.58;47.01
69464;DHT22;56665;41.106;16.688;2024-03-02T09:26:45;22.94;46.03
69464;DHT22;56665;41.106;16.688;2024-03-02T09:29:49;23.13;46.44
69464;DHT22;56665;41.106;16.688;2024-03-02T09:32:53;23.29;44.46
69464;DHT22;56665;41.106;16.688;2024-03-02T09:35:56;23.25;44.97
69464;DHT22;56665;41.106;16.688;2024-03-02T09:39:00;23.47;45.10
69464;DHT22;56665;41.106;16.688;2024-03-02T09:42:05;22.81;45.29
69464;DHT22;56665;41.106;16.688;2024-03-02T09:45:09;23.23;44.43
69464;DHT22;56665;41.106;16.688;2024-03-02T09:48:13;23.50;44.96
69464;DHT22;56665;41.106;16.688;2024-03-02T09:51:18;23.71;44.27
69464;DHT22;56665;41.106;16.688;2024-03-02T09:54:23;24.06;44.17
69464;DHT22;56665;41.106;16.688;2024-03-02T09:57:27;23.78;43.48
69464;DHT22;56665;41.106;16.688;2024-03-02T10:00:30;23.64;43.85
69464;DHT22;56665;41.106;16.688;2024-03-02T10:03:34;24.05;44.13
69464;DHT22;56665;41.106;16.688;2024-03-02T10:06:38;24.46;42.31
69464;DHT22;56665;41.106;16.688;2024-03-02T10:09:45;24.62;42.50
69464;DHT22;56665;41.106;16.688;2024-03-02T10:13:03;24.62;43.29
69464;DHT22;56665;41.106;16.688;2024-03-02T10:16:12;24.55;42.11
69464;DHT22;56665;41.106;16.688;2024-03-02T10:19:23;23.81;43.13
69464;DHT22;56665;41.106;16.688;2024-03-02T10:22:27;23.78;43.56
69464;DHT22;56665;41.106;16.688;2024-03-02T10:25:32;24.06;43.48
69464;DHT22;56665;41.106;16.688;2024-03-02T10:28:36;24.57;43.70
69464;DHT22;56665;41.106;16.688;2024-03-02T10:31:41;24.59;43.15
69464;DHT22;56665;41.106;16.688;2024-03-02T10:34:46;24.31;38.75
69464;DHT22;56665;41.106;16.688;2024-03-02T10:37:52;24.48;38.12
69464;DHT22;56665;41.106;16.688;2024-03-02T10:40:57;24.53;39.46
69464;DHT22;56665;41.106;16.688;2024-03-02T10:44:07;24.12;40.50
69464;DHT22;56665;41.106;16.688;2024-03-02T10:47:12;24.25;40.07
69464;DHT22;56665;41.106;16.688;2024-03-02T10:50:15;23.63;42.52
69464;DHT22;56665;41.106;16.688;2024-03-02T10:53:19;23.03;43.97
69464;DHT22;56665;41.106;16.688;2024-03-02T10:59:53;23.22;45.51
69464;DHT22;56665;41.106;16.688;2024-03-02T11:03:07;23.09;45.88
69464;DHT22;56665;41.106;16.688;2024-03-02T11:06:14;22.27;46.15
69464;DHT22;56665;41.106;16.688;2024-03-02T11:09:22;21.49;48.09
69464;DHT22;56665;41.106;16.688;2024-03-02T11:12:35;20.86;49.22
69464;DHT22;56665;41.106;16.688;2024-03-02T11:15:40;21.08;49.61
69464;DHT22;56665;41.106;16.688;2024-03-02T11:18:47;20.36;50.98
69464;DHT22;56665;41.106;16.688;2024-03-02T11:21:53;20.70;50.33
69464;DHT22;56665;41.106;16.688;2024-03-02T11:24:57;20.35;51.20
69464;DHT22;56665;41.106;16.688;2024-03-02T11:28:07;20.84;50.43
69464;DHT22;56665;41.106;16.688;2024-03-02T11:31:13;20.38;51.58
69464;DHT22;56665;41.106;16.688;2024-03-02T11:34:33;20.00;52.65
69464;DHT22;56665;41.106;16.688;2024-03-02T11:37:37;19.39;54.98
69464;DHT22;56665;41.106;16.688;2024-03-02T11:40:42;19.42;54.99
69464;DHT22;56665;41.106;16.688;2024-03-02T11:43:45;19.03;54.89
69464;DHT22;56665;41.106;16.688;2024-03-02T11:46:58;19.36;54.25
69464;DHT22;56665;41.106;16.688;2024-03-02T11:50:02;19.19;54.02
69464;DHT22;56665;41.106;16.688;2024-03-02T11:53:10;19.40;53.98
69464;DHT22;56665;41.106;16.688;2024-03-02T11:56:16;19.42;54.24
69464;DHT22;56665;41.106;16.688;2024-03-02T11:59:21;19.19;54.45
69464;DHT22;56665;41.106;16.688;2024-03-02T12:02:25;19.15;55.07
69464;DHT22;56665;41.106;16.688;2024-03-02T12:05:29;19.20;54.35
69464;DHT22;56665;41.106;16.688;2024-03-02T12:08:33;19.43;54.82
69464;DHT22;56665;41.106;16.688;2024-03-02T12:11:37;19.68;53.43
69464;DHT22;56665;41.106;16.688;2024-03-02T12:14:50;19.51;54.31
69464;DHT22;56665;41.106;16.688;2024-03-02T12:17:55;19.36;54.65
69464;DHT22;56665;41.106;16.688;2024-03-02T12:20:59;19.18;55.18
69464;DHT22;56665;41.106;16.688;2024-03-02T12:24:03;18.98;55.53
69464;DHT22;56665;41.106;16.688;2024-03-02T12:27:07;19.29;55.14
69464;DHT22;56665;41.106;16.688;2024-03-02T12:30:12;18.91;55.67
69464;DHT22;56665;41.106;16.688;2024-03-02T12:33:17;19.19;56.33
69464;DHT22;56665;41.106;16.688;2024-03-02T12:36:22;18.95;56.87
69464;DHT22;56665;41.106;16.688;2024-03-02T12:39:25;19.10;56.52
69464;DHT22;56665;41.106;16.688;2024-03-02T12:42:30;18.63;57.28
69464;DHT22;56665;41.106;16.688;2024-03-02T12:45:35;18.46;58.65
69464;DHT22;56665;41.106;16.688;2024-03-02T12:48:38;18.26;59.97
69464;DHT22;56665;41.106;16.688;2024-03-02T12:51:45;18.64;59.52
69464;DHT22;56665;41.106;16.688;2024-03-02T12:54:50;17.96;61.64
69464;DHT22;56665;41.106;16.688;2024-03-02T12:57:54;17.21;64.17
69464;DHT22;56665;41.106;16.688;2024-03-02T13:01:15;17.26;64.97
69464;DHT22;56665;41.106;16.688;2024-03-02T13:04:26;17.00;64.46
69464;DHT22;56665;41.106;16.688;2024-03-02T13:07:31;16.87;65.07
69464;DHT22;56665;41.106;16.688;2024-03-02T13:10:37;16.86;65.54
69464;DHT22;56665;41.106;16.688;2024-03-02T13:13:41;17.03;67.15
69464;DHT22;56665;41.106;16.688;2024-03-02T13:16:45;17.23;65.67
69464;DHT22;56665;41.106;16.688;2024-03-02T13:20:08;17.49;65.55
69464;DHT22;56665;41.106;16.688;2024-03-02T13:23:14;17.76;64.98
69464;DHT22;56665;41.106;16.688;2024-03-02T13:26:18;17.67;64.07
69464;DHT22;56665;41.106;16.688;2024-03-02T13:29:22;17.41;65.22
69464;DHT22;56665;41.106;16.688;2024-03-02T13:32:25;17.62;68.85
69464;DHT22;56665;41.106;16.688;2024-03-02T13:35:29;17.59;68.30
69464;DHT22;56665;41.106;16.688;2024-03-02T13:38:33;17.52;69.56
69464;DHT22;56665;41.106;16.688;2024-03-02T13:41:37;17.32;68.74
69464;DHT22;56665;41.106;16.688;2024-03-02T13:44:44;17.02;69.87
69464;DHT22;56665;41.106;16.688;2024-03-02T13:47:52;16.85;71.11
69464;DHT22;56665;41.106;16.688;2024-03-02T13:50:57;16.80;71.39
69464;DHT22;56665;41.106;16.688;2024-03-02T13:54:00;17.04;70.94
69464;DHT22;56665;41.106;16.688;2024-03-02T13:57:04;17.16;69.59
69464;DHT22;56665;41.106;16.688;2024-03-02T14:00:08;16.93;69.61
69464;DHT22;56665;41.106;16.688;2024-03-02T14:03:16;16.86;70.14
69464;DHT22;56665;41.106;16.688;2024-03-02T14:06:19;17.13;70.28
69464;DHT22;56665;41.106;16.688;2024-03-02T14:09:23;17.07;69.61
69464;DHT22;56665;41.106;16.688;2024-03-02T14:12:27;16.75;70.40
69464;DHT22;56665;41.106;16.688;2024-03-02T14:15:31;16.55;70.52
69464;DHT22;56665;41.106;16.688;2024-03-02T14:18:35;16.37;71.24
69464;DHT22;56665;41.106;16.688;2024-03-02T14:21:39;16.07;72.09
69464;DHT22;56665;41.106;16.688;2024-03-02T14:24:43;15.80;73.84
69464;DHT22;56665;41.106;16.688;2024-03-02T14:27:47;15.93;74.20
69464;DHT22;56665;41.106;16.688;2024-03-02T14:30:51;15.98;74.14
69464;DHT22;56665;41.106;16.688;2024-03-02T14:33:55;16.44;72.27
69464;DHT22;56665;41.106;16.688;2024-03-02T14:36:59;16.34;72.21
69464;DHT22;56665;41.106;16.688;2024-03-02T14:40:03;16.63;71.93
69464;DHT22;56665;41.106;16.688;2024-03-02T14:43:09;16.82;70.82
69464;DHT22;56665;41.106;16.688;2024-03-02T14:46:13;16.97;70.04
69464;DHT22;56665;41.106;16.688;2024-03-02T14:49:17;16.93;70.30
69464;DHT22;56665;41.106;16.688;2024-03-02T14:52:21;16.82;71.49
69464;DHT22;56665;41.106;16.688;2024-03-02T14:55:24;16.49;72.32
69464;DHT22;56665;41.106;16.688;2024-03-02T14:58:28;16.08;74.33
69464;DHT22;56665;41.106;16.688;2024-03-02T15:01:32;15.91;75.04
69464;DHT22;56665;41.106;16.688;2024-03-02T15:04:36;15.87;75.38
69464;DHT22;56665;41.106;16.688;2024-03-02T15:07:40;15.71;75.50
69464;DHT22;56665;41.106;16.688;2024-03-02T15:10:44;15.67;76.11
69464;DHT22;56665;41.106;16.688;2024-03-02T15:13:47;15.66;75.41
69464;DHT22;56665;41.106;16.688;2024-03-02T15:16:51;15.71;75.34
69464;DHT22;56665;41.106;16.688;2024-03-02T15:19:55;15.88;76.22
69464;DHT22;56665;41.106;16.688;2024-03-02T15:22:59;16.01;76.29
69464;DHT22;56665;41.106;16.688;2024-03-02T15:26:03;16.11;77.43
69464;DHT22;56665;41.106;16.688;2024-03-02T15:29:06;16.15;77.63
69464;DHT22;56665;41.106;16.688;2024-03-02T15:32:10;16.18;77.23
69464;DHT22;56665;41.106;16.688;2024-03-02T15:35:14;16.06;76.96
69464;DHT22;56665;41.106;16.688;2024-03-02T15:38:18;16.01;77.71
69464;DHT22;56665;41.106;16.688;2024-03-02T15:41:21;15.84;77.22
69464;DHT22;56665;41.106;16.688;2024-03-02T15:44:25;15.83;77.16
69464;DHT22;56665;41.106;16.688;2024-03-02T15:47:29;15.84;77.10
69464;DHT22;56665;41.106;16.688;2024-03-02T15:50:33;15.87;77.17
69464;DHT22;56665;41.106;16.688;2024-03-02T15:53:37;15.93;77.37
69464;DHT22;56665;41.106;16.688;2024-03-02T15:56:40;15.91;77.37
69464;DHT22;56665;41.106;16.688;2024-03-02T15:59:44;15.86;77.45
69464;DHT22;56665;41.106;16.688;2024-03-02T16:02:48;15.77;77.21
69464;DHT22;56665;41.106;16.688;2024-03-02T16:05:52;15.71;77.00
69464;DHT22;56665;41.106;16.688;2024-03-02T16:08:56;15.70;77.18
69464;DHT22;56665;41.106;16.688;2024-03-02T16:12:03;15.65;77.13
69464;DHT22;56665;41.106;16.688;2024-03-02T16:15:07;15.65;77.47
69464;DHT22;56665;41.106;16.688;2024-03-02T16:18:12;15.65;77.84
69464;DHT22;56665;41.106;16.688;2024-03-02T16:21:15;15.62;77.65
69464;DHT22;56665;41.106;16.688;2024-03-02T16:24:19;15.62;77.50
69464;DHT22;56665;41.106;16.688;2024-03-02T16:27:23;15.60;77.33
69464;DHT22;56665;41.106;16.688;2024-03-02T16:30:28;15.62;77.77
69464;DHT22;56665;41.106;16.688;2024-03-02T16:33:32;15.59;77.58
69464;DHT22;56665;41.106;16.688;2024-03-02T16:36:35;15.59;77.54
69464;DHT22;56665;41.106;16.688;2024-03-02T16:39:40;15.57;77.76
69464;DHT22;56665;41.106;16.688;2024-03-02T16:42:45;15.53;77.83
69464;DHT22;56665;41.106;16.688;2024-03-02T16:45:49;15.47;78.05
69464;DHT22;56665;41.106;16.688;2024-03-02T16:48:53;15.50;78.32
69464;DHT22;56665;41.106;16.688;2024-03-02T16:51:57;15.49;78.49
69464;DHT22;56665;41.106;16.688;2024-03-02T16:55:01;15.46;78.83
69464;DHT22;56665;41.106;16.688;2024-03-02T16:58:05;15.46;79.15
69464;DHT22;56665;41.106;16.688;2024-03-02T17:01:09;15.42;79.57
69464;DHT22;56665;41.106;16.688;2024-03-02T17:04:13;15.42;79.74
69464;DHT22;56665;41.106;16.688;2024-03-02T17:07:17;15.39;79.96
69464;DHT22;56665;41.106;16.688;2024-03-02T17:10:21;15.36;80.45
69464;DHT22;56665;41.106;16.688;2024-03-02T17:13:24;15.36;80.75
69464;DHT22;56665;41.106;16.688;2024-03-02T17:16:28;15.32;81.49
69464;DHT22;56665;41.106;16.688;2024-03-02T17:19:32;15.28;81.56
69464;DHT22;56665;41.106;16.688;2024-03-02T17:22:36;15.25;82.03
69464;DHT22;56665;41.106;16.688;2024-03-02T17:25:40;15.32;82.98
69464;DHT22;56665;41.106;16.688;2024-03-02T17:28:44;15.47;82.06
69464;DHT22;56665;41.106;16.688;2024-03-02T17:31:48;15.65;81.24
69464;DHT22;56665;41.106;16.688;2024-03-02T17:34:52;15.76;80.80
69464;DHT22;56665;41.106;16.688;2024-03-02T17:37:55;15.80;81.03
69464;DHT22;56665;41.106;16.688;2024-03-02T17:40:59;15.78;81.79
69464;DHT22;56665;41.106;16.688;2024-03-02T17:44:04;15.73;81.66
69464;DHT22;56665;41.106;16.688;2024-03-02T17:47:08;15.66;81.27
69464;DHT22;56665;41.106;16.688;2024-03-02T17:50:11;15.60;81.23
69464;DHT22;56665;41.106;16.688;2024-03-02T17:53:15;15.56;81.99
69464;DHT22;56665;41.106;16.688;2024-03-02T17:56:19;15.55;81.83
69464;DHT22;56665;41.106;16.688;2024-03-02T17:59:23;15.56;82.05
69464;DHT22;56665;41.106;16.688;2024-03-02T18:02:26;15.56;82.04
69464;DHT22;56665;41.106;16.688;2024-03-02T18:05:30;15.49;82.22
69464;DHT22;56665;41.106;16.688;2024-03-02T18:08:35;15.38;82.50
69464;DHT22;56665;41.106;16.688;2024-03-02T18:11:39;15.34;82.42
69464;DHT22;56665;41.106;16.688;2024-03-02T18:14:42;15.29;82.39
69464;DHT22;56665;41.106;16.688;2024-03-02T18:17:46;15.29;82.33
69464;DHT22;56665;41.106;16.688;2024-03-02T18:20:50;15.28;82.36
69464;DHT22;56665;41.106;16.688;2024-03-02T18:23:54;15.20;82.01
69464;DHT22;56665;41.106;16.688;2024-03-02T18:26:57;15.18;82.26
69464;DHT22;56665;41.106;16.688;2024-03-02T18:30:03;15.12;82.10
69464;DHT22;56665;41.106;16.688;2024-03-02T18:33:08;15.16;81.92
69464;DHT22;56665;41.106;16.688;2024-03-02T18:36:12;15.18;81.37
69464;DHT22;56665;41.106;16.688;2024-03-02T18:39:17;15.12;80.56
69464;DHT22;56665;41.106;16.688;2024-03-02T18:42:21;15.08;79.71
69464;DHT22;56665;41.106;16.688;2024-03-02T18:45:25;15.09;79.69
69464;DHT22;56665;41.106;16.688;2024-03-02T18:48:28;14.98;78.98
69464;DHT22;56665;41.106;16.688;2024-03-02T18:51:32;14.94;78.10
69464;DHT22;56665;41.106;16.688;2024-03-02T18:54:36;14.94;78.02
69464;DHT22;56665;41.106;16.688;2024-03-02T18:57:40;14.89;75.79
69464;DHT22;56665;41.106;16.688;2024-03-02T19:00:44;14.89;74.55
69464;DHT22;56665;41.106;16.688;2024-03-02T19:03:48;14.94;74.03
69464;DHT22;56665;41.106;16.688;2024-03-02T19:06:52;14.92;73.36
69464;DHT22;56665;41.106;16.688;2024-03-02T19:09:56;14.95;72.94
69464;DHT22;56665;41.106;16.688;2024-03-02T19:12:59;14.95;73.48
69464;DHT22;56665;41.106;16.688;2024-03-02T19:16:03;14.94;73.48